Time;durP1;ratioP1;P1;durP2;ratioP2;P2;SDS_P1;SDS_P2;PMS_P1;PMS_P2;Temp;Humidity;BMP_temperature;BMP_pressure;BME280_temperature;BME280_humidity;BME280_pressure;Samples;Min_cycle;Max_cycle;Signal;HPM_P1;HPM_P2
2022/08/24 00:00:07;;;;;;;4.13;2.50;;;;;;;16.75;100.00;101854.91;5054931;28;20057;-72
2022/08/24 00:02:33;;;;;;;3.80;2.90;;;;;;;16.74;100.00;101849.69;5054659;28;20035;-73
2022/08/24 00:04:58;;;;;;;6.75;2.72;;;;;;;16.75;100.00;101849.53;5053810;28;20116;-72
2022/08/24 00:07:24;;;;;;;3.75;2.75;;;;;;;16.75;100.00;101843.34;5054289;28;20029;-82
2022/08/24 00:09:49;;;;;;;3.53;2.70;;;;;;;16.75;100.00;101848.72;5054342;28;20366;-71
2022/08/24 00:12:15;;;;;;;4.13;2.30;;;;;;;16.73;100.00;101848.00;5054318;28;20033;-74
2022/08/24 00:14:41;;;;;;;2.63;2.40;;;;;;;16.70;100.00;101843.78;5054294;28;20029;-72
2022/08/24 00:17:07;;;;;;;2.45;2.05;;;;;;;16.67;100.00;101851.31;5052441;28;20462;-73
2022/08/24 00:19:33;;;;;;;4.00;2.35;;;;;;;16.65;100.00;101847.94;5054190;28;20115;-72
2022/08/24 00:21:59;;;;;;;7.90;2.20;;;;;;;16.66;100.00;101846.94;5054092;28;20029;-72
2022/08/24 00:24:25;;;;;;;3.72;2.90;;;;;;;16.66;100.00;101853.16;5054016;28;20086;-72
2022/08/24 00:26:51;;;;;;;2.42;2.13;;;;;;;16.65;100.00;101851.47;5054219;28;20029;-73
2022/08/24 00:29:17;;;;;;;3.75;2.65;;;;;;;16.68;100.00;101845.78;5053981;28;20029;-72
2022/08/24 00:31:43;;;;;;;3.65;2.05;;;;;;;16.69;100.00;101849.31;5053896;28;20029;-72
2022/08/24 00:34:09;;;;;;;2.00;1.80;;;;;;;16.69;100.00;101844.78;5053569;28;20545;-72
2022/08/24 00:36:35;;;;;;;3.85;2.45;;;;;;;16.69;100.00;101843.94;5053981;28;20037;-72
2022/08/24 00:39:00;;;;;;;3.00;2.17;;;;;;;16.66;100.00;101847.78;5053732;28;20025;-72
2022/08/24 00:41:27;;;;;;;3.15;2.20;;;;;;;16.65;100.00;101847.94;5053772;28;20131;-73
2022/08/24 00:43:59;;;;;;;3.95;2.13;;;;;;;16.64;100.00;101846.25;5053678;28;20032;-72
2022/08/24 00:46:36;;;;;;;2.67;2.28;;;;;;;16.62;100.00;101845.56;5054178;28;20459;-72
2022/08/24 00:49:07;;;;;;;3.75;2.60;;;;;;;16.63;100.00;101849.94;5053560;28;20076;-72
2022/08/24 00:51:38;;;;;;;3.20;2.90;;;;;;;16.61;100.00;101855.47;5053259;28;20492;-72
2022/08/24 00:54:11;;;;;;;3.17;2.70;;;;;;;16.61;100.00;101846.56;5053997;28;20251;-72
2022/08/24 00:56:44;;;;;;;2.80;2.47;;;;;;;16.59;100.00;101832.44;5052153;28;20130;-72
2022/08/24 00:59:15;;;;;;;4.13;2.63;;;;;;;16.58;100.00;101839.66;5053442;28;20025;-72
2022/08/24 01:01:42;;;;;;;2.45;2.00;;;;;;;16.55;100.00;101843.47;5053906;28;20032;-72
2022/08/24 01:04:14;;;;;;;2.80;2.28;;;;;;;16.56;100.00;101842.50;5053266;28;20025;-72
2022/08/24 01:06:40;;;;;;;3.08;2.50;;;;;;;16.56;100.00;101839.81;5053938;28;20028;-72
2022/08/24 01:09:05;;;;;;;3.97;3.10;;;;;;;16.56;100.00;101845.19;5053415;28;20033;-72
2022/08/24 01:11:32;;;;;;;3.47;2.78;;;;;;;16.55;100.00;101840.78;5053423;28;20074;-80
2022/08/24 01:13:59;;;;;;;4.15;2.30;;;;;;;16.55;100.00;101840.78;5052858;28;20111;-72
2022/08/24 01:19:28;;;;;;;5.00;3.00;;;;;;;16.52;100.00;101835.72;5053362;28;20087;-72
2022/08/24 01:22:19;;;;;;;2.97;2.38;;;;;;;16.49;100.00;101844.09;5053605;28;20028;-72
2022/08/24 01:24:45;;;;;;;3.63;2.60;;;;;;;16.46;100.00;101841.72;5053723;28;20165;-72
2022/08/24 01:27:10;;;;;;;2.58;2.30;;;;;;;16.42;100.00;101843.06;5053427;28;20414;-72
2022/08/24 01:29:37;;;;;;;2.75;2.50;;;;;;;16.38;100.00;101847.88;5053539;28;20427;-73
2022/08/24 01:32:03;;;;;;;3.25;2.40;;;;;;;16.38;100.00;101855.91;5052957;28;20115;-72
2022/08/24 01:34:28;;;;;;;3.10;2.63;;;;;;;16.38;100.00;101857.78;5053200;28;20462;-72
2022/08/24 01:36:55;;;;;;;3.50;2.30;;;;;;;16.37;100.00;101861.44;5052752;28;20099;-72
2022/08/24 01:39:27;;;;;;;2.47;2.10;;;;;;;16.36;100.00;101863.28;5053063;28;20362;-72
2022/08/24 01:41:53;;;;;;;2.85;2.25;;;;;;;16.37;100.00;101862.28;5052479;28;20029;-72
2022/08/24 01:44:21;;;;;;;2.28;2.05;;;;;;;16.40;100.00;101863.81;5052706;28;20082;-72
2022/08/24 01:46:48;;;;;;;3.15;2.33;;;;;;;16.43;100.00;101874.25;5052031;28;20021;-72
2022/08/24 01:49:14;;;;;;;3.38;2.30;;;;;;;16.44;100.00;101864.38;5053598;28;20049;-72
2022/08/24 01:51:41;;;;;;;4.78;2.15;;;;;;;16.47;100.00;101870.28;5052982;28;20510;-73
2022/08/24 01:54:07;;;;;;;4.50;2.50;;;;;;;16.49;100.00;101870.97;5052694;28;20048;-72
2022/08/24 01:56:34;;;;;;;3.33;2.13;;;;;;;16.53;100.00;101874.19;5052939;28;20470;-72
2022/08/24 01:59:00;;;;;;;3.85;2.40;;;;;;;16.56;100.00;101868.53;5052901;28;20033;-72
2022/08/24 02:01:29;;;;;;;4.57;2.58;;;;;;;16.61;100.00;101866.19;5052678;28;20051;-72
2022/08/24 02:03:56;;;;;;;2.70;1.83;;;;;;;16.68;100.00;101869.97;5052464;28;20025;-72
2022/08/24 02:06:22;;;;;;;3.15;2.10;;;;;;;16.72;100.00;101870.53;5052357;28;20033;-72
2022/08/24 02:08:47;;;;;;;1.98;1.65;;;;;;;16.76;100.00;101869.19;5053214;28;20110;-73
2022/08/24 02:11:12;;;;;;;2.53;1.80;;;;;;;16.81;100.00;101860.66;5053415;28;20417;-73
2022/08/24 02:13:40;;;;;;;1.98;1.70;;;;;;;16.81;100.00;101861.53;5052464;28;20029;-82
2022/08/24 02:16:05;;;;;;;6.30;2.25;;;;;;;16.82;100.00;101867.72;5052564;28;20025;-72
2022/08/24 02:18:32;;;;;;;5.55;2.13;;;;;;;16.79;100.00;101860.81;5052731;28;20092;-72
2022/08/24 02:20:58;;;;;;;4.70;2.30;;;;;;;16.77;100.00;101853.94;5052860;28;20410;-72
2022/08/24 02:23:24;;;;;;;3.58;2.03;;;;;;;16.71;100.00;101860.75;5051140;28;20033;-72
2022/08/24 02:25:51;;;;;;;6.03;2.13;;;;;;;16.67;100.00;101857.53;5052163;28;20473;-73
2022/08/24 02:28:17;;;;;;;3.42;1.98;;;;;;;16.60;100.00;101864.53;5052352;28;20033;-72
2022/08/24 02:30:43;;;;;;;4.68;2.30;;;;;;;16.56;100.00;101871.22;5052254;28;20445;-73
2022/08/24 02:33:08;;;;;;;3.45;2.10;;;;;;;16.53;100.00;101866.16;5050967;28;20136;-72
2022/08/24 02:35:34;;;;;;;3.05;2.20;;;;;;;16.50;100.00;101869.13;5052254;28;20129;-72
2022/08/24 02:37:59;;;;;;;3.72;2.10;;;;;;;16.45;100.00;101868.72;5052116;28;20032;-72
2022/08/24 02:40:25;;;;;;;3.78;2.05;;;;;;;16.37;100.00;101862.28;5052217;28;20459;-73
2022/08/24 02:42:51;;;;;;;3.17;2.03;;;;;;;16.34;100.00;101859.06;5051769;28;20382;-72
2022/08/24 02:45:16;;;;;;;3.88;1.95;;;;;;;16.30;100.00;101863.03;5052000;28;20025;-72
2022/08/24 02:47:42;;;;;;;2.53;2.00;;;;;;;16.29;100.00;101862.22;5052354;28;20049;-80
2022/08/24 02:50:12;;;;;;;5.13;2.30;;;;;;;16.28;100.00;101854.31;5052477;28;20025;-72
2022/08/24 02:52:38;;;;;;;3.83;2.53;;;;;;;16.27;100.00;101856.16;5052912;28;20025;-72
2022/08/24 02:55:07;;;;;;;3.65;2.30;;;;;;;16.22;100.00;101861.13;5052153;28;20025;-72
2022/08/24 02:57:32;;;;;;;3.72;2.50;;;;;;;16.19;100.00;101854.22;5052085;28;20025;-72
2022/08/24 02:59:58;;;;;;;2.47;2.10;;;;;;;16.17;100.00;101858.06;5053666;28;20091;-72
2022/08/24 03:02:24;;;;;;;2.28;2.08;;;;;;;16.12;100.00;101853.16;5055730;28;20120;-72
2022/08/24 03:04:49;;;;;;;2.60;2.10;;;;;;;16.11;100.00;101864.00;5054259;28;20344;-73
2022/08/24 03:07:15;;;;;;;3.28;2.42;;;;;;;16.07;100.00;101859.97;5054100;28;20036;-72
2022/08/24 03:09:40;;;;;;;2.78;2.30;;;;;;;16.07;100.00;101868.00;5056083;28;20033;-72
2022/08/24 03:12:05;;;;;;;3.53;2.40;;;;;;;16.06;100.00;101864.47;5055605;28;20036;-72
2022/08/24 03:14:32;;;;;;;2.47;1.92;;;;;;;16.05;100.00;101865.47;5054420;28;20078;-72
2022/08/24 03:16:57;;;;;;;6.60;2.30;;;;;;;16.05;100.00;101868.16;5055314;28;20075;-72
2022/08/24 03:19:22;;;;;;;3.67;2.70;;;;;;;16.08;100.00;101867.84;5055264;28;20029;-72
2022/08/24 03:21:48;;;;;;;3.40;2.53;;;;;;;16.13;100.00;101873.59;5055155;28;20079;-71
2022/08/24 03:24:13;;;;;;;6.32;3.15;;;;;;;16.18;100.00;101876.69;5055714;28;20106;-72
2022/08/24 03:26:39;;;;;;;3.90;3.05;;;;;;;16.27;100.00;101868.72;5054408;28;20154;-72
2022/08/24 03:29:05;;;;;;;4.93;3.13;;;;;;;16.34;100.00;101872.50;5054992;28;20343;-72
2022/08/24 03:31:31;;;;;;;4.90;3.28;;;;;;;16.40;100.00;101864.66;5053778;28;20048;-72
2022/08/24 03:33:56;;;;;;;4.55;2.88;;;;;;;16.46;100.00;101863.22;5054819;28;20079;-72
2022/08/24 03:36:21;;;;;;;6.35;3.00;;;;;;;16.53;100.00;101868.84;5053971;28;20096;-72
2022/08/24 03:38:47;;;;;;;4.80;3.15;;;;;;;16.60;100.00;101863.66;5053431;28;20025;-71
2022/08/24 03:41:12;;;;;;;4.35;2.85;;;;;;;16.65;100.00;101862.22;5054786;28;20033;-72
2022/08/24 03:43:50;;;;;;;5.07;2.58;;;;;;;16.72;100.00;101857.91;5054950;28;20459;-72
2022/08/24 03:46:22;;;;;;;6.78;3.00;;;;;;;16.80;100.00;101859.81;5055348;28;20514;-72
2022/08/24 03:48:48;;;;;;;4.25;2.75;;;;;;;16.87;100.00;101871.69;5054492;28;20080;-72
2022/08/24 03:51:16;;;;;;;4.63;3.47;;;;;;;16.96;100.00;101869.03;5054440;28;20032;-72
2022/08/24 03:53:42;;;;;;;5.07;2.90;;;;;;;17.05;100.00;101870.81;5053258;28;20056;-72
2022/08/24 03:56:08;;;;;;;4.75;3.20;;;;;;;17.13;100.00;101865.47;5054967;28;20391;-72
2022/08/24 03:58:38;;;;;;;7.57;3.30;;;;;;;17.21;100.00;101867.38;5054393;28;20033;-72
2022/08/24 04:01:04;;;;;;;3.30;2.85;;;;;;;17.29;100.00;101870.13;5054394;28;20021;-72
2022/08/24 04:03:33;;;;;;;5.43;2.85;;;;;;;17.37;100.00;101870.16;5054197;28;20025;-72
2022/08/24 04:05:58;;;;;;;4.70;2.80;;;;;;;17.43;100.00;101869.53;5054263;28;20021;-71
2022/08/24 04:08:24;;;;;;;5.22;2.78;;;;;;;17.48;100.00;101876.28;5054733;28;20033;-72
2022/08/24 04:10:49;;;;;;;3.83;2.75;;;;;;;17.51;100.00;101870.59;5053634;28;20053;-72
2022/08/24 04:13:16;;;;;;;2.88;2.40;;;;;;;17.53;100.00;101872.13;5054357;28;20031;-72
2022/08/24 04:15:42;;;;;;;6.13;3.10;;;;;;;17.59;100.00;101871.47;5053988;28;20033;-72
2022/08/24 04:18:08;;;;;;;5.18;2.70;;;;;;;17.63;100.00;101872.03;5053912;28;20075;-72
2022/08/24 04:20:42;;;;;;;4.90;2.58;;;;;;;17.67;100.00;101876.06;5054239;28;20516;-71
2022/08/24 04:23:09;;;;;;;7.10;2.85;;;;;;;17.68;100.00;101866.16;5053790;28;20025;-72
2022/08/24 04:25:45;;;;;;;3.67;2.42;;;;;;;17.71;100.00;101871.22;5054032;28;20028;-72
2022/08/24 04:28:12;;;;;;;4.28;2.15;;;;;;;17.72;100.00;101876.44;5053561;28;20135;-72
2022/08/24 04:30:43;;;;;;;2.63;2.00;;;;;;;17.75;100.00;101877.94;5053887;28;20033;-71
2022/08/24 04:33:10;;;;;;;3.05;2.10;;;;;;;17.78;100.00;101880.34;5054695;28;20025;-72
2022/08/24 04:35:37;;;;;;;2.40;2.15;;;;;;;17.79;100.00;101882.88;5054453;28;20120;-71
2022/08/24 04:38:03;;;;;;;3.83;2.28;;;;;;;17.81;100.00;101890.78;5053475;28;20021;-72
2022/08/24 04:40:29;;;;;;;4.80;2.20;;;;;;;17.80;100.00;101883.69;5053637;28;20033;-71
2022/08/24 04:42:54;;;;;;;4.30;1.90;;;;;;;17.81;100.00;101896.16;5053978;28;20378;-71
2022/08/24 04:45:19;;;;;;;1.98;1.70;;;;;;;17.80;100.00;101879.16;5053930;28;20385;-71
2022/08/24 04:47:45;;;;;;;2.35;1.98;;;;;;;17.82;100.00;101887.06;5053246;28;20080;-72
2022/08/24 04:50:11;;;;;;;4.88;2.22;;;;;;;17.82;100.00;101888.91;5053462;28;20049;-71
2022/08/24 04:52:37;;;;;;;3.63;1.90;;;;;;;17.82;100.00;101884.38;5053420;28;20061;-71
2022/08/24 04:55:03;;;;;;;3.78;2.10;;;;;;;17.86;100.00;101891.13;5053122;28;20060;-72
2022/08/24 04:57:28;;;;;;;3.92;2.25;;;;;;;17.88;100.00;101890.97;5053059;28;20021;-72
2022/08/24 04:59:57;;;;;;;4.65;2.53;;;;;;;17.91;100.00;101888.81;5051610;28;20025;-71
2022/08/24 05:02:23;;;;;;;3.60;2.70;;;;;;;17.96;100.00;101893.72;5053353;28;20475;-72
2022/08/24 05:04:48;;;;;;;7.60;2.92;;;;;;;18.01;100.00;101887.84;5053297;28;20017;-72
2022/08/24 05:07:14;;;;;;;4.13;3.00;;;;;;;18.05;100.00;101894.56;5053147;28;20103;-72
2022/08/24 05:09:39;;;;;;;8.18;3.15;;;;;;;18.10;100.00;101895.78;5053388;28;20021;-72
2022/08/24 05:12:05;;;;;;;6.13;3.05;;;;;;;18.17;100.00;101892.44;5052132;28;20029;-72
2022/08/24 05:14:30;;;;;;;3.85;3.08;;;;;;;18.23;100.00;101897.19;5053422;28;20105;-72
2022/08/24 05:16:56;;;;;;;4.15;3.30;;;;;;;18.26;100.00;101895.00;5053525;28;20021;-71
2022/08/24 05:19:22;;;;;;;5.05;3.08;;;;;;;18.32;100.00;101890.81;5052906;28;20029;-72
2022/08/24 05:21:48;;;;;;;5.20;2.70;;;;;;;18.36;100.00;101891.31;5052933;28;20481;-71
2022/08/24 05:24:13;;;;;;;7.43;3.05;;;;;;;18.41;100.00;101897.91;5052847;28;20033;-72
2022/08/24 05:26:39;;;;;;;3.50;2.80;;;;;;;18.46;100.00;101900.09;5053631;28;20435;-71
2022/08/24 05:29:04;;;;;;;7.80;2.90;;;;;;;18.50;100.00;101898.75;5052837;28;20036;-72
2022/08/24 05:31:32;;;;;;;3.42;2.90;;;;;;;18.56;100.00;101902.66;5052929;28;20025;-72
2022/08/24 05:33:59;;;;;;;4.43;2.95;;;;;;;18.60;100.00;101907.53;5052661;28;20071;-72
2022/08/24 05:36:30;;;;;;;6.50;2.65;;;;;;;18.67;100.00;101902.31;5052531;28;20020;-72
2022/08/24 05:38:59;;;;;;;3.78;2.70;;;;;;;18.75;100.00;101896.94;5052789;28;20104;-71
2022/08/24 05:41:25;;;;;;;6.15;3.00;;;;;;;18.80;100.00;101894.56;5052680;28;20041;-72
2022/08/24 05:43:51;;;;;;;4.75;2.67;;;;;;;18.88;100.00;101898.31;5052772;28;20078;-72
2022/08/24 05:46:16;;;;;;;4.45;3.10;;;;;;;18.94;100.00;101903.88;5052333;28;20025;-72
2022/08/24 05:48:42;;;;;;;5.93;2.85;;;;;;;19.00;100.00;101894.25;5052291;28;20043;-72
2022/08/24 05:51:08;;;;;;;5.82;3.10;;;;;;;19.07;100.00;101897.13;5052727;28;20107;-72
2022/08/24 05:53:35;;;;;;;6.43;3.30;;;;;;;19.11;100.00;101895.75;5052685;28;20079;-71
2022/08/24 05:56:07;;;;;;;7.35;3.53;;;;;;;19.12;100.00;101898.31;5052761;28;20126;-71
2022/08/24 05:58:32;;;;;;;4.28;3.10;;;;;;;19.13;100.00;101894.59;5052850;28;20447;-72
2022/08/24 06:01:03;;;;;;;10.18;3.50;;;;;;;19.13;100.00;101894.59;5053085;28;20036;-72
2022/08/24 06:03:29;;;;;;;8.10;3.35;;;;;;;19.09;100.00;101890.53;5052857;28;20102;-72
2022/08/24 06:05:54;;;;;;;4.35;3.22;;;;;;;19.05;100.00;101896.44;5052442;28;20521;-72
2022/08/24 06:08:20;;;;;;;7.25;3.33;;;;;;;18.99;100.00;101890.72;5052456;28;20130;-72
2022/08/24 06:10:46;;;;;;;8.52;3.80;;;;;;;18.98;100.00;101896.28;5052673;28;20025;-73
2022/08/24 06:13:13;;;;;;;9.02;3.38;;;;;;;18.98;100.00;101902.53;5052508;28;20110;-73
2022/08/24 06:15:40;;;;;;;4.55;3.10;;;;;;;19.02;100.00;101906.56;5052862;28;20041;-73
2022/08/24 06:18:07;;;;;;;7.97;4.03;;;;;;;19.07;100.00;101908.75;5052261;28;20017;-79
2022/08/24 06:20:37;;;;;;;7.35;3.95;;;;;;;19.14;100.00;101908.94;5052494;28;20549;-73
2022/08/24 06:23:03;;;;;;;6.95;3.63;;;;;;;19.22;100.00;101908.09;5053443;28;20116;-73
2022/08/24 06:28:12;;;;;;;6.22;2.88;;;;;;;19.34;100.00;101906.72;5052794;28;20131;-74
2022/08/24 06:30:37;;;;;;;7.43;3.20;;;;;;;19.41;100.00;101909.56;5052429;28;20067;-73
2022/08/24 06:33:04;;;;;;;5.22;3.22;;;;;;;19.49;100.00;101904.97;5053379;28;20108;-74
2022/08/24 06:35:30;;;;;;;11.02;3.63;;;;;;;19.58;100.00;101910.38;5056047;28;20029;-74
2022/08/24 06:37:56;;;;;;;12.27;3.72;;;;;;;19.68;100.00;101908.31;5054666;28;20426;-73
2022/08/24 06:40:22;;;;;;;4.75;3.50;;;;;;;19.82;100.00;101909.47;5055862;28;20029;-74
2022/08/24 06:42:49;;;;;;;8.43;3.70;;;;;;;19.93;100.00;101909.13;5055946;28;20135;-75
2022/08/24 06:45:14;;;;;;;6.90;3.85;;;;;;;20.00;100.00;101917.34;5055998;28;20029;-74
2022/08/24 06:47:40;;;;;;;8.27;4.10;;;;;;;20.07;100.00;101918.34;5056274;28;20049;-74
2022/08/24 06:50:07;;;;;;;9.82;3.83;;;;;;;20.14;100.00;101913.91;5055669;28;20047;-75
2022/08/24 06:52:34;;;;;;;5.32;3.85;;;;;;;20.19;100.00;101914.22;5055655;28;20438;-73
2022/08/24 06:54:59;;;;;;;6.30;3.60;;;;;;;20.26;100.00;101917.91;5055694;28;20025;-74
2022/08/24 06:57:24;;;;;;;9.55;3.63;;;;;;;20.32;100.00;101918.19;5055582;28;20021;-74
2022/08/24 06:59:50;;;;;;;6.40;3.67;;;;;;;20.40;100.00;101919.00;5055837;28;20021;-73
2022/08/24 07:02:17;;;;;;;8.10;3.78;;;;;;;20.46;100.00;101916.63;5055881;28;20037;-71
2022/08/24 07:04:44;;;;;;;7.88;3.78;;;;;;;20.51;100.00;101912.34;5055241;28;20033;-71
2022/08/24 07:07:10;;;;;;;7.85;3.78;;;;;;;20.61;100.00;101918.34;5056024;28;20110;-71
2022/08/24 07:09:35;;;;;;;15.32;3.90;;;;;;;20.68;100.00;101915.81;5055516;28;20028;-73
2022/08/24 07:12:01;;;;;;;7.28;3.35;;;;;;;20.74;100.00;101914.25;5055278;28;20029;-72
2022/08/24 07:14:26;;;;;;;7.95;3.78;;;;;;;20.82;100.00;101921.47;5054846;28;20455;-72
2022/08/24 07:16:52;;;;;;;6.45;3.80;;;;;;;20.91;100.00;101920.38;5055630;28;20032;-73
2022/08/24 07:19:17;;;;;;;3.88;2.80;;;;;;;21.01;100.00;101922.84;5055299;28;20017;-71
2022/08/24 07:21:43;;;;;;;7.35;3.35;;;;;;;21.13;100.00;101924.91;5055563;28;20331;-71
2022/08/24 07:24:09;;;;;;;5.35;3.25;;;;;;;21.23;100.00;101926.50;5053674;28;20028;-73
2022/08/24 07:26:35;;;;;;;6.63;3.35;;;;;;;21.37;100.00;101930.28;5055174;28;20024;-74
2022/08/24 07:29:05;;;;;;;7.30;3.63;;;;;;;21.43;100.00;101933.09;5055064;28;20063;-73
2022/08/24 07:31:35;;;;;;;5.50;3.75;;;;;;;21.51;100.00;101934.06;5055316;28;20056;-74
2022/08/24 07:34:02;;;;;;;5.70;3.05;;;;;;;21.56;100.00;101935.19;5054712;28;20025;-71
2022/08/24 07:36:28;;;;;;;7.95;3.47;;;;;;;21.65;100.00;101939.50;5054632;28;20374;-74
2022/08/24 07:38:53;;;;;;;5.60;3.10;;;;;;;21.79;100.00;101936.97;5054933;28;20021;-73
2022/08/24 07:41:20;;;;;;;6.47;3.08;;;;;;;21.88;100.00;101943.13;5054836;28;20134;-70
2022/08/24 07:43:46;;;;;;;8.40;3.13;;;;;;;21.96;100.00;101946.59;5054762;28;20029;-70
2022/08/24 07:46:12;;;;;;;5.00;2.63;;;;;;;22.09;100.00;101947.78;5053432;28;20505;-70
2022/08/24 07:48:38;;;;;;;4.20;2.80;;;;;;;22.25;100.00;101941.31;5053399;28;20362;-71
2022/08/24 07:51:09;;;;;;;8.77;3.25;;;;;;;22.38;99.43;101952.34;5054468;28;20029;-72
2022/08/24 07:53:35;;;;;;;3.58;2.70;;;;;;;22.47;99.15;101948.50;5052561;28;20120;-72
2022/08/24 07:56:00;;;;;;;5.57;2.95;;;;;;;22.53;97.79;101953.16;5052830;28;20045;-72
2022/08/24 07:58:26;;;;;;;4.07;2.53;;;;;;;22.64;97.44;101951.81;5053915;28;20029;-73
2022/08/24 08:00:52;;;;;;;4.72;3.25;;;;;;;22.82;96.68;101955.94;5054430;28;20456;-72
2022/08/24 08:03:17;;;;;;;3.85;2.40;;;;;;;23.01;95.36;101954.47;5054521;28;20410;-73
2022/08/24 08:05:43;;;;;;;5.70;2.75;;;;;;;23.27;92.92;101953.03;5054225;28;20033;-72
2022/08/24 08:08:10;;;;;;;4.35;2.70;;;;;;;23.53;90.96;101958.66;5054339;28;20029;-73
2022/08/24 08:10:36;;;;;;;4.32;2.30;;;;;;;23.81;89.96;101959.66;5054245;28;20067;-71
2022/08/24 08:13:05;;;;;;;7.47;2.40;;;;;;;24.16;87.86;101960.50;5054020;28;20127;-72
2022/08/24 08:15:31;;;;;;;3.55;2.05;;;;;;;24.55;85.25;101958.13;5053728;28;20483;-72
2022/08/24 08:17:57;;;;;;;5.60;1.95;;;;;;;24.93;81.54;101961.19;5054045;28;20064;-72
2022/08/24 08:20:23;;;;;;;9.50;2.03;;;;;;;25.38;80.31;101965.16;5052454;28;20124;-72
2022/08/24 08:25:37;;;;;;;6.40;2.15;;;;;;;26.18;76.07;101963.13;5052922;28;20051;-72
2022/08/24 08:28:05;;;;;;;4.72;2.17;;;;;;;26.68;72.24;101967.94;5053713;28;20033;-74
2022/08/24 08:30:31;;;;;;;7.35;2.20;;;;;;;26.97;72.00;101968.34;5053957;28;20033;-73
2022/08/24 08:32:57;;;;;;;4.82;2.70;;;;;;;27.07;68.67;101970.59;5053651;28;20463;-73
2022/08/24 08:35:23;;;;;;;7.03;2.40;;;;;;;27.27;67.83;101964.97;5054016;28;20041;-83
2022/08/24 08:37:48;;;;;;;5.82;2.42;;;;;;;27.34;66.90;101965.78;5053419;28;20140;-73
2022/08/24 08:40:55;;;;;;;5.57;2.70;;;;;;;27.38;64.96;101961.53;5053553;28;20045;-72
2022/08/24 08:43:20;;;;;;;5.00;2.63;;;;;;;27.29;69.21;101965.59;5053742;28;20036;-73
2022/08/24 08:46:06;;;;;;;6.40;2.58;;;;;;;27.06;68.99;101967.03;5053833;28;20116;-73
2022/08/24 08:48:40;;;;;;;3.55;1.80;;;;;;;27.02;71.28;101964.97;5053092;28;20455;-73
2022/08/24 08:51:22;;;;;;;4.97;2.00;;;;;;;27.37;66.17;101962.59;5053629;28;20033;-72
2022/08/24 08:54:13;;;;;;;3.95;1.70;;;;;;;27.38;64.14;101960.69;5053067;28;20494;-72
2022/08/24 08:57:22;;;;;;;6.50;2.13;;;;;;;27.60;63.60;101958.38;5043157;28;20045;-72
2022/08/24 09:00:12;;;;;;;3.65;1.55;;;;;;;27.91;61.62;101968.31;5052876;28;20033;-72
2022/08/24 09:03:08;;;;;;;3.20;1.33;;;;;;;28.30;62.17;101957.97;5052654;28;20455;-72
2022/08/24 09:05:50;;;;;;;5.05;1.60;;;;;;;29.01;56.17;101960.97;5021783;28;20071;-72
2022/08/24 09:08:24;;;;;;;4.50;1.70;;;;;;;30.13;54.20;101958.31;5052915;28;20028;-72
2022/08/24 09:11:05;;;;;;;3.90;1.60;;;;;;;31.21;49.47;101963.00;5052279;28;20035;-72
2022/08/24 09:13:53;;;;;;;5.93;1.60;;;;;;;32.51;46.70;101963.63;5053164;28;20021;-72
2022/08/24 09:16:27;;;;;;;5.07;1.40;;;;;;;33.45;42.67;101964.13;5052826;28;20036;-72
2022/08/24 09:19:13;;;;;;;11.90;1.75;;;;;;;34.02;40.83;101968.03;5052667;28;20186;-72
2022/08/24 09:21:51;;;;;;;3.42;1.33;;;;;;;34.64;39.15;101961.84;5051445;28;20040;-72
2022/08/24 09:24:38;;;;;;;3.72;1.20;;;;;;;35.18;38.56;101968.78;5052434;28;20029;-72
2022/08/24 09:27:21;;;;;;;3.38;1.30;;;;;;;35.21;37.48;101963.50;5052604;28;20048;-72
2022/08/24 09:29:57;;;;;;;4.20;1.42;;;;;;;35.28;38.20;101968.78;5052899;28;20107;-72
2022/08/24 09:32:37;;;;;;;1.67;1.10;;;;;;;35.61;37.21;101969.25;5052685;28;20120;-72
2022/08/24 09:35:08;;;;;;;1.48;1.25;;;;;;;35.60;37.59;101970.34;5052740;28;20116;-72
2022/08/24 09:38:32;;;;;;;2.67;1.20;;;;;;;36.27;34.91;101972.84;5052851;28;20028;-72
2022/08/24 09:41:18;;;;;;;1.95;1.10;;;;;;;35.01;36.08;101969.03;4989483;28;20118;-72
2022/08/24 09:44:31;;;;;;;2.83;1.20;;;;;;;35.64;37.09;101966.75;5052530;28;20033;-72
2022/08/24 09:47:36;;;;;;;4.60;1.10;;;;;;;35.94;37.99;101972.47;4981112;28;20055;-72
2022/08/24 09:50:26;;;;;;;2.03;1.00;;;;;;;35.77;36.08;101970.84;5052524;28;20040;-72
2022/08/24 09:53:11;;;;;;;1.55;1.20;;;;;;;35.80;35.75;101969.47;5051781;28;20447;-72
2022/08/24 09:55:58;;;;;;;2.35;1.23;;;;;;;36.63;34.71;101964.31;5052764;28;20029;-72
2022/08/24 09:58:41;;;;;;;2.35;1.27;;;;;;;36.34;34.98;101965.09;5052385;28;20485;-72
2022/08/24 10:01:18;;;;;;;2.22;1.10;;;;;;;36.45;33.76;101963.88;5052364;28;20029;-72
2022/08/24 10:04:21;;;;;;;2.15;1.05;;;;;;;36.47;32.96;101958.91;5052366;28;20033;-72
2022/08/24 10:07:13;;;;;;;1.90;1.10;;;;;;;35.87;34.80;101963.63;5050901;28;20390;-72
2022/08/24 10:09:49;;;;;;;4.63;0.88;;;;;;;36.50;34.28;101963.84;5044582;28;20094;-72
2022/08/24 10:12:20;;;;;;;1.90;1.20;;;;;;;35.99;35.55;101950.28;5056557;28;20021;-72
2022/08/24 10:15:21;;;;;;;2.78;1.00;;;;;;;35.98;35.77;101954.16;5056029;28;20037;-71
2022/08/24 10:18:17;;;;;;;1.10;1.00;;;;;;;35.84;34.29;101959.50;5038522;28;20037;-72
2022/08/24 10:20:48;;;;;;;3.10;1.08;;;;;;;35.17;35.16;101958.81;5056473;28;20037;-72
2022/08/24 10:24:04;;;;;;;5.72;1.20;;;;;;;34.59;35.52;101946.94;5056206;28;20029;-72
2022/08/24 10:27:08;;;;;;;3.63;1.10;;;;;;;34.65;36.67;101944.16;4975416;28;20038;-73
2022/08/24 10:30:18;;;;;;;2.35;0.90;;;;;;;35.30;35.34;101949.97;4964878;28;20468;-72
2022/08/24 10:32:58;;;;;;;;;;;;;;;35.61;33.75;101947.13;5055989;28;20114;-72
2022/08/24 10:35:44;;;;;;;;;;;;;;;34.08;36.97;101947.63;5055134;28;19967;-73
2022/08/24 10:41:33;;;;;;;2.95;0.93;;;;;;;35.66;35.13;101950.66;5057112;28;20055;-72
2022/08/24 10:44:17;;;;;;;1.38;0.80;;;;;;;34.39;36.32;101949.66;5055560;28;20036;-72
2022/08/24 10:46:59;;;;;;;2.47;1.00;;;;;;;32.78;39.94;101946.28;5056144;28;20509;-73
2022/08/24 10:50:01;;;;;;;2.55;1.20;;;;;;;31.55;42.86;101942.91;5055647;28;20548;-72
2022/08/24 10:52:53;;;;;;;1.55;1.10;;;;;;;30.40;47.82;101944.88;5056873;28;20025;-72
2022/08/24 10:55:25;;;;;;;4.18;1.40;;;;;;;29.50;53.40;101948.97;5055950;28;20040;-73
2022/08/24 10:58:02;;;;;;;2.72;1.60;;;;;;;28.92;55.55;101937.75;5055327;28;20108;-72
2022/08/24 11:00:29;;;;;;;8.20;1.80;;;;;;;28.39;57.42;101944.00;5055880;28;20055;-73
2022/08/24 11:03:15;;;;;;;4.00;1.30;;;;;;;27.94;60.81;101942.44;5055807;28;20466;-72
2022/08/24 11:05:52;;;;;;;3.42;1.55;;;;;;;28.07;61.15;101944.22;5055149;28;20036;-71
2022/08/24 11:08:29;;;;;;;3.70;1.40;;;;;;;28.77;58.60;101945.59;5055658;28;20115;-71
2022/08/24 11:11:06;;;;;;;3.20;1.15;;;;;;;30.40;54.96;101950.34;5055064;28;20048;-72
2022/08/24 11:13:32;;;;;;;3.53;1.40;;;;;;;31.34;48.67;101947.28;5055431;28;20036;-72
2022/08/24 11:16:00;;;;;;;3.90;1.58;;;;;;;31.50;49.40;101942.81;5054904;28;20058;-71
2022/08/24 11:18:45;;;;;;;2.10;1.20;;;;;;;32.40;44.94;101937.09;5054873;28;20091;-71
2022/08/24 11:21:30;;;;;;;4.13;1.20;;;;;;;32.18;45.07;101932.44;5054848;28;20053;-72
2022/08/24 11:24:01;;;;;;;3.42;1.10;;;;;;;32.99;43.82;101928.81;5055072;28;20029;-72
2022/08/24 11:26:27;;;;;;;5.13;1.20;;;;;;;32.84;45.25;101936.94;5054759;28;20479;-72
2022/08/24 11:28:59;;;;;;;2.45;1.30;;;;;;;32.97;44.94;101928.22;5054945;28;20474;-72
2022/08/24 11:31:33;;;;;;;8.45;1.25;;;;;;;32.44;46.92;101932.69;5054730;28;20056;-72
2022/08/24 11:34:03;;;;;;;6.03;1.42;;;;;;;32.79;45.91;101932.22;5055030;28;20040;-71
2022/08/24 11:36:31;;;;;;;;;;;;;;;32.76;46.80;101929.19;5055594;28;20094;-72
2022/08/24 11:39:11;;;;;;;3.35;1.30;;;;;;;33.46;45.26;101926.38;5054463;28;19917;-72
2022/08/24 11:41:49;;;;;;;5.43;1.23;;;;;;;34.96;42.25;101928.41;5054428;28;20032;-70
2022/08/24 11:44:32;;;;;;;6.35;1.10;;;;;;;36.26;40.80;101927.69;5054466;28;20509;-71
2022/08/24 11:47:10;;;;;;;5.68;1.40;;;;;;;35.57;39.00;101938.53;5054815;28;20033;-71